Time;durP1;ratioP1;P1;durP2;ratioP2;P2;SDS_P1;SDS_P2;PMS_P1;PMS_P2;Temp;Humidity;BMP_temperature;BMP_pressure;BME280_temperature;BME280_humidity;BME280_pressure;Samples;Min_cycle;Max_cycle;Signal;HPM_P1;HPM_P2
2023/04/22 04:25:54;;;;;;;26.23;12.05;;;;;;;;;;8419157;23;20080;-85
2023/04/22 04:29:57;;;;;;;24.50;11.25;;;;;;;;;;8368416;28;20057;-87
2023/04/22 04:33:59;;;;;;;;;;;;;;;;;;8367370;28;20044;-85
2023/04/22 04:38:05;;;;;;;17.10;9.18;;;;;;;;;;8368488;28;19925;-86
2023/04/22 04:42:10;;;;;;;24.40;11.15;;;;;;;;;;8367169;28;20462;-87
2023/04/22 04:46:15;;;;;;;23.10;12.57;;;;;;;;;;8366718;28;20136;-89
2023/04/22 04:50:18;;;;;;;16.70;8.73;;;;;;;;;;8367566;28;20448;-87
2023/04/22 04:54:21;;;;;;;118.75;70.05;;;;;;;;;;8366750;28;20053;-87
2023/04/22 04:58:29;;;;;;;57.90;35.50;;;;;;;;;;8355959;28;20445;-85
2023/04/22 05:02:32;;;;;;;31.92;17.17;;;;;;;;;;8367835;28;20475;-89
2023/04/22 05:06:34;;;;;;;22.70;14.25;;;;;;;;;;8365721;28;20757;-89
2023/04/22 05:10:41;;;;;;;21.48;12.45;;;;;;;;;;8364569;28;20053;-86
2023/04/22 05:14:53;;;;;;;16.48;10.27;;;;;;;;;;8361736;28;20049;-88
2023/04/22 05:18:57;;;;;;;18.38;9.73;;;;;;;;;;8364934;28;20096;-87
2023/04/22 05:23:01;;;;;;;16.35;9.90;;;;;;;;;;8373182;28;20044;-87
2023/04/22 05:27:06;;;;;;;15.52;12.85;;;;;;;;;;8427935;28;20127;-88
2023/04/22 05:31:10;;;;;;;22.80;15.10;;;;;;;;;;8427903;28;20495;-90
2023/04/22 05:35:14;;;;;;;17.52;11.18;;;;;;;;;;8420545;28;20131;-88
2023/04/22 05:39:17;;;;;;;17.08;11.88;;;;;;;;;;8417167;28;20060;-88
2023/04/22 05:43:20;;;;;;;18.55;12.90;;;;;;;;;;8414718;28;20056;-89
2023/04/22 05:47:24;;;;;;;20.80;12.02;;;;;;;;;;8424187;28;20087;-89
2023/04/22 05:51:27;;;;;;;17.27;11.18;;;;;;;;;;8391747;28;20111;-88
2023/04/22 05:55:31;;;;;;;16.25;10.85;;;;;;;;;;8435806;28;20052;-88
2023/04/22 05:59:34;;;;;;;15.40;9.95;;;;;;;;;;8391355;28;20068;-88
2023/04/22 06:03:39;;;;;;;11.85;8.90;;;;;;;;;;8435481;28;20048;-88
2023/04/22 06:07:44;;;;;;;12.02;8.20;;;;;;;;;;8426182;28;20089;-87
2023/04/22 06:11:50;;;;;;;11.75;7.43;;;;;;;;;;8381452;28;20056;-90
2023/04/22 06:15:56;;;;;;;9.63;6.47;;;;;;;;;;8375181;28;20075;-90
2023/04/22 06:20:05;;;;;;;13.88;7.78;;;;;;;;;;8379918;28;20080;-90
2023/04/22 06:24:11;;;;;;;11.85;8.80;;;;;;;;;;8380042;28;20048;-89
2023/04/22 06:28:18;;;;;;;11.02;6.03;;;;;;;;;;8398855;28;20094;-89
2023/04/22 06:32:21;;;;;;;12.05;6.05;;;;;;;;;;8413557;28;20056;-90
2023/04/22 06:36:28;;;;;;;7.70;5.38;;;;;;;;;;8380241;28;20045;-90
2023/04/22 06:40:34;;;;;;;9.05;5.30;;;;;;;;;;8360819;28;20049;-90
2023/04/22 06:44:37;;;;;;;9.82;4.75;;;;;;;;;;8382934;28;20052;-90
2023/04/22 06:48:42;;;;;;;8.40;4.07;;;;;;;;;;8414953;28;20060;-89
2023/04/22 06:52:48;;;;;;;8.50;4.60;;;;;;;;;;8366031;28;20052;-88
2023/04/22 06:56:54;;;;;;;6.53;4.07;;;;;;;;;;8422018;28;20059;-90
2023/04/22 07:00:57;;;;;;;5.93;3.85;;;;;;;;;;8389096;28;20407;-91
2023/04/22 07:05:00;;;;;;;5.22;3.40;;;;;;;;;;8384529;28;20492;-90
2023/04/22 07:09:05;;;;;;;7.53;4.00;;;;;;;;;;8398261;28;20112;-91
2023/04/22 07:13:08;;;;;;;8.07;4.28;;;;;;;;;;8416082;28;20049;-91
2023/04/22 07:17:14;;;;;;;6.60;4.00;;;;;;;;;;8420174;28;20067;-90
2023/04/22 07:21:18;;;;;;;6.50;3.50;;;;;;;;;;8429799;28;20052;-90
2023/04/22 07:25:22;;;;;;;6.80;3.50;;;;;;;;;;8406871;28;20415;-92
2023/04/22 07:29:28;;;;;;;5.03;3.40;;;;;;;;;;8393548;28;20049;-92
2023/04/22 07:33:31;;;;;;;8.27;3.20;;;;;;;;;;8365765;28;20060;-91
2023/04/22 07:37:34;;;;;;;5.88;3.30;;;;;;;;;;8424516;28;20485;-92
2023/04/22 07:41:44;;;;;;;4.75;3.05;;;;;;;;;;8393316;28;20143;-92
2023/04/22 07:45:47;;;;;;;6.47;3.10;;;;;;;;;;8389756;28;21778;-91
2023/04/22 07:49:50;;;;;;;5.28;3.13;;;;;;;;;;8409989;28;20079;-91
2023/04/22 07:53:54;;;;;;;6.88;3.20;;;;;;;;;;8385794;28;20131;-90
2023/04/22 07:57:59;;;;;;;6.20;3.00;;;;;;;;;;8426375;28;20044;-92
2023/04/22 08:02:02;;;;;;;7.55;3.50;;;;;;;;;;8424472;28;20119;-90
2023/04/22 08:06:08;;;;;;;6.13;2.58;;;;;;;;;;8404025;28;20496;-90
2023/04/22 08:10:14;;;;;;;4.75;2.80;;;;;;;;;;8435331;28;20059;-92
2023/04/22 08:14:19;;;;;;;5.38;2.33;;;;;;;;;;8474406;28;20048;-91
2023/04/22 08:18:22;;;;;;;5.15;2.50;;;;;;;;;;8472001;28;20028;-89
2023/04/22 08:22:26;;;;;;;5.07;2.97;;;;;;;;;;8453811;28;20036;-89
2023/04/22 08:26:29;;;;;;;13.73;7.25;;;;;;;;;;8454070;28;20048;-90
2023/04/22 08:30:33;;;;;;;5.22;2.67;;;;;;;;;;8447136;28;20064;-89
2023/04/22 08:34:37;;;;;;;6.40;2.90;;;;;;;;;;8431724;28;20079;-89
2023/04/22 08:38:42;;;;;;;4.22;2.90;;;;;;;;;;8375498;28;20072;-89
2023/04/22 08:42:45;;;;;;;5.18;2.78;;;;;;;;;;8375599;22;20143;-89
2023/04/22 08:46:51;;;;;;;4.95;2.92;;;;;;;;;;8365405;28;20095;-89
2023/04/22 08:50:54;;;;;;;3.72;2.97;;;;;;;;;;8365760;28;20048;-89
2023/04/22 08:54:57;;;;;;;4.18;2.67;;;;;;;;;;8365642;28;20573;-90
2023/04/22 08:59:02;;;;;;;5.25;2.95;;;;;;;;;;8365755;28;20063;-90
2023/04/22 09:08:08;;;;;;;5.22;2.80;;;;;;;;;;8368395;28;20057;-90
2023/04/22 09:12:11;;;;;;;7.68;3.63;;;;;;;;;;8358057;28;20104;-90
2023/04/22 09:16:20;;;;;;;4.70;3.05;;;;;;;;;;8337694;28;20053;-91
2023/04/22 09:20:30;;;;;;;4.32;2.75;;;;;;;;;;8367211;28;20128;-90
2023/04/22 09:24:37;;;;;;;5.55;3.28;;;;;;;;;;8350861;28;20405;-90
2023/04/22 09:28:52;;;;;;;5.40;3.10;;;;;;;;;;8363645;28;20491;-90
2023/04/22 09:33:00;;;;;;;5.50;2.70;;;;;;;;;;8341594;28;20413;-90
2023/04/22 09:37:13;;;;;;;6.00;3.30;;;;;;;;;;8346428;28;20437;-90
2023/04/22 09:41:16;;;;;;;6.13;3.20;;;;;;;;;;8337361;28;20061;-89
2023/04/22 09:45:29;;;;;;;8.68;3.50;;;;;;;;;;8357287;28;20141;-89
2023/04/22 09:49:37;;;;;;;5.97;3.03;;;;;;;;;;8349780;28;20053;-88
2023/04/22 09:53:45;;;;;;;6.35;3.22;;;;;;;;;;8357295;28;20075;-90
2023/04/22 09:57:51;;;;;;;6.00;3.00;;;;;;;;;;8350507;28;20507;-91
2023/04/22 10:01:59;;;;;;;5.65;3.50;;;;;;;;;;8351503;28;20054;-89
2023/04/22 10:06:06;;;;;;;5.75;3.13;;;;;;;;;;8342625;28;20076;-89
2023/04/22 10:10:11;;;;;;;5.70;3.40;;;;;;;;;;8341623;28;20068;-90
2023/04/22 10:14:23;;;;;;;8.02;3.00;;;;;;;;;;8355562;28;20075;-92
2023/04/22 10:18:41;;;;;;;8.13;3.03;;;;;;;;;;8352266;28;20103;-89
2023/04/22 10:22:44;;;;;;;9.32;3.70;;;;;;;;;;8350552;28;20140;-90
2023/04/22 10:26:57;;;;;;;7.28;3.55;;;;;;;;;;8353382;28;20073;-89
2023/04/22 10:31:07;;;;;;;8.55;3.33;;;;;;;;;;8327813;28;20053;-90
2023/04/22 10:35:12;;;;;;;5.65;3.03;;;;;;;;;;8326150;28;20258;-90
2023/04/22 10:39:17;;;;;;;10.55;4.85;;;;;;;;;;8351909;28;20061;-91
2023/04/22 10:43:40;;;;;;;5.05;2.60;;;;;;;;;;8331569;28;20068;-89
2023/04/22 10:47:44;;;;;;;6.25;2.75;;;;;;;;;;8344626;28;20068;-91
2023/04/22 10:51:48;;;;;;;3.63;2.60;;;;;;;;;;8299838;22;20062;-90
2023/04/22 10:55:55;;;;;;;8.93;5.85;;;;;;;;;;8282661;28;20061;-89
2023/04/22 11:00:00;;;;;;;4.45;2.78;;;;;;;;;;8281883;28;20054;-90
2023/04/22 11:04:22;;;;;;;6.28;2.80;;;;;;;;;;8259632;28;20497;-90
2023/04/22 11:08:30;;;;;;;8.43;3.00;;;;;;;;;;8282095;28;20120;-89
2023/04/22 11:12:43;;;;;;;5.82;2.70;;;;;;;;;;8268456;28;20070;-89
2023/04/22 11:16:51;;;;;;;4.45;2.45;;;;;;;;;;8280922;28;20046;-90
2023/04/22 11:20:57;;;;;;;4.20;2.58;;;;;;;;;;8277689;28;20053;-89
2023/04/22 11:25:03;;;;;;;6.25;2.90;;;;;;;;;;8294351;28;20073;-89
2023/04/22 11:29:06;;;;;;;6.70;2.80;;;;;;;;;;8296388;28;20468;-89
2023/04/22 11:33:16;;;;;;;4.22;2.80;;;;;;;;;;8295875;28;20058;-89
2023/04/22 11:37:19;;;;;;;5.82;3.13;;;;;;;;;;8295031;28;20068;-89
2023/04/22 11:41:25;;;;;;;5.18;2.67;;;;;;;;;;8296843;28;20054;-89
2023/04/22 11:45:32;;;;;;;12.38;3.17;;;;;;;;;;8300038;28;20053;-89
2023/04/22 11:49:36;;;;;;;6.20;2.67;;;;;;;;;;8329307;28;20119;-89
2023/04/22 11:53:40;;;;;;;4.03;2.50;;;;;;;;;;8362229;28;20053;-89
2023/04/22 11:57:46;;;;;;;4.18;2.70;;;;;;;;;;8361995;28;20056;-90
2023/04/22 12:01:50;;;;;;;4.47;2.90;;;;;;;;;;8345109;28;20065;-90
2023/04/22 12:05:56;;;;;;;4.22;2.55;;;;;;;;;;8362398;28;20507;-90
2023/04/22 12:10:04;;;;;;;4.03;2.78;;;;;;;;;;8361558;28;20053;-90
2023/04/22 12:14:07;;;;;;;5.13;2.75;;;;;;;;;;8361957;28;20064;-90
2023/04/22 12:18:13;;;;;;;6.97;2.90;;;;;;;;;;8361699;28;20132;-89
2023/04/22 12:22:26;;;;;;;4.40;2.80;;;;;;;;;;8344798;28;20198;-91
2023/04/22 12:26:29;;;;;;;3.83;2.45;;;;;;;;;;8344682;28;20531;-90
2023/04/22 12:30:32;;;;;;;4.47;2.78;;;;;;;;;;8344544;28;20163;-90
2023/04/22 12:34:35;;;;;;;5.47;2.75;;;;;;;;;;8375134;28;20052;-90
2023/04/22 12:38:40;;;;;;;4.72;2.53;;;;;;;;;;8361754;28;20075;-90
2023/04/22 12:42:46;;;;;;;3.38;2.45;;;;;;;;;;8367892;28;20504;-90
2023/04/22 12:46:50;;;;;;;7.15;2.85;;;;;;;;;;8367385;28;20065;-90
2023/04/22 12:50:53;;;;;;;6.25;3.08;;;;;;;;;;8349076;28;20060;-90
2023/04/22 12:54:59;;;;;;;6.43;3.40;;;;;;;;;;8367266;28;20065;-90
2023/04/22 12:59:03;;;;;;;8.27;4.65;;;;;;;;;;8366872;28;20053;-89
2023/04/22 13:03:07;;;;;;;5.07;3.15;;;;;;;;;;8349824;28;20532;-91
2023/04/22 13:07:13;;;;;;;6.40;2.85;;;;;;;;;;8349493;28;20225;-90
2023/04/22 13:11:20;;;;;;;3.92;2.60;;;;;;;;;;8366589;28;20134;-89
2023/04/22 13:15:26;;;;;;;7.18;4.28;;;;;;;;;;8366285;28;20060;-91
2023/04/22 13:19:30;;;;;;;5.97;2.90;;;;;;;;;;8366332;28;20122;-90
2023/04/22 13:23:34;;;;;;;6.18;2.70;;;;;;;;;;8349069;28;20132;-90
2023/04/22 13:27:39;;;;;;;4.50;2.67;;;;;;;;;;8366207;28;20057;-90
2023/04/22 13:31:46;;;;;;;4.40;2.60;;;;;;;;;;8366532;28;20135;-90
2023/04/22 13:35:52;;;;;;;5.55;2.72;;;;;;;;;;8348729;28;20065;-90
2023/04/22 13:39:57;;;;;;;4.65;2.55;;;;;;;;;;8348584;28;20500;-90
2023/04/22 13:44:07;;;;;;;7.80;2.88;;;;;;;;;;8348345;28;20056;-90
2023/04/22 13:48:13;;;;;;;5.30;2.67;;;;;;;;;;8348391;28;20413;-90
2023/04/22 13:52:16;;;;;;;5.22;2.63;;;;;;;;;;8364840;28;20630;-89
2023/04/22 13:56:21;;;;;;;4.20;2.70;;;;;;;;;;8356802;28;20091;-89
2023/04/22 14:00:28;;;;;;;5.00;3.03;;;;;;;;;;8352587;28;20057;-89
2023/04/22 14:04:31;;;;;;;5.45;2.78;;;;;;;;;;8348133;28;20056;-90
2023/04/22 14:08:34;;;;;;;6.20;3.15;;;;;;;;;;8364849;28;20080;-89
2023/04/22 14:12:40;;;;;;;6.10;2.72;;;;;;;;;;8364674;28;20115;-90
2023/04/22 14:16:45;;;;;;;7.13;3.30;;;;;;;;;;8347703;28;20744;-90
2023/04/22 14:20:49;;;;;;;6.38;2.83;;;;;;;;;;8358281;28;20153;-90
2023/04/22 14:24:52;;;;;;;5.57;3.05;;;;;;;;;;8435343;23;20139;-90
2023/04/22 14:28:58;;;;;;;9.40;2.90;;;;;;;;;;8364166;28;20501;-90
2023/04/22 14:33:05;;;;;;;7.28;3.00;;;;;;;;;;8339095;28;20045;-89
2023/04/22 14:37:11;;;;;;;5.45;3.00;;;;;;;;;;8364335;28;20063;-90
2023/04/22 14:41:14;;;;;;;4.57;2.97;;;;;;;;;;8347492;28;20064;-90
2023/04/22 14:45:18;;;;;;;5.90;3.17;;;;;;;;;;8346349;28;20152;-90
2023/04/22 14:49:25;;;;;;;5.45;3.05;;;;;;;;;;8358000;28;20540;-90
2023/04/22 14:53:30;;;;;;;6.72;2.72;;;;;;;;;;8357073;28;20058;-89
2023/04/22 14:57:33;;;;;;;9.38;2.72;;;;;;;;;;8336571;28;20103;-89
2023/04/22 15:01:39;;;;;;;3.55;2.63;;;;;;;;;;8367467;28;20057;-90
2023/04/22 15:05:59;;;;;;;6.53;3.08;;;;;;;;;;8362417;28;20040;-89
2023/04/22 15:10:05;;;;;;;4.28;2.67;;;;;;;;;;8346048;28;20136;-89
2023/04/22 15:14:11;;;;;;;6.30;3.08;;;;;;;;;;8345728;28;20148;-89
2023/04/22 15:18:15;;;;;;;4.20;2.65;;;;;;;;;;8346434;28;20057;-90
2023/04/22 15:22:22;;;;;;;8.90;2.53;;;;;;;;;;8345446;28;20434;-90
2023/04/22 15:26:28;;;;;;;5.07;2.70;;;;;;;;;;8363323;28;20052;-90
2023/04/22 15:30:31;;;;;;;4.80;2.92;;;;;;;;;;8345230;28;20084;-89
2023/04/22 15:34:34;;;;;;;5.28;2.72;;;;;;;;;;8362987;28;20115;-89
2023/04/22 15:38:43;;;;;;;4.13;2.33;;;;;;;;;;8360592;28;20060;-88
2023/04/22 15:42:46;;;;;;;6.50;2.75;;;;;;;;;;8338017;28;20056;-89
2023/04/22 15:46:51;;;;;;;5.95;2.60;;;;;;;;;;8359108;28;20610;-90
2023/04/22 15:50:54;;;;;;;5.90;2.80;;;;;;;;;;8361869;28;20079;-90
2023/04/22 15:55:04;;;;;;;3.40;2.33;;;;;;;;;;8362026;28;20063;-90
2023/04/22 15:59:09;;;;;;;4.78;2.75;;;;;;;;;;8345290;28;20148;-90
2023/04/22 16:03:13;;;;;;;8.48;3.30;;;;;;;;;;8362119;28;20052;-90
2023/04/22 16:07:19;;;;;;;4.68;2.33;;;;;;;;;;8338338;28;20065;-88
2023/04/22 16:11:26;;;;;;;3.67;2.65;;;;;;;;;;8323203;28;20053;-89
2023/04/22 16:15:29;;;;;;;3.28;2.05;;;;;;;;;;8365563;28;20243;-88
2023/04/22 16:19:35;;;;;;;4.78;3.00;;;;;;;;;;8357394;28;20052;-87
2023/04/22 16:23:39;;;;;;;4.10;2.50;;;;;;;;;;8329766;28;20448;-89
2023/04/22 16:27:46;;;;;;;5.32;2.75;;;;;;;;;;8336088;28;20064;-90
2023/04/22 16:31:51;;;;;;;5.80;3.10;;;;;;;;;;8351141;28;20065;-88
2023/04/22 16:35:55;;;;;;;4.75;2.90;;;;;;;;;;8326211;28;20479;-87
2023/04/22 16:40:03;;;;;;;4.35;2.55;;;;;;;;;;8325841;28;20064;-90
2023/04/22 16:44:12;;;;;;;4.55;3.05;;;;;;;;;;8321187;28;20063;-88
2023/04/22 16:48:15;;;;;;;4.65;2.63;;;;;;;;;;8339976;28;20244;-89
2023/04/22 16:52:18;;;;;;;9.15;4.80;;;;;;;;;;8341312;28;20065;-89
2023/04/22 16:56:22;;;;;;;5.38;3.38;;;;;;;;;;8335528;28;20053;-89
2023/04/22 17:00:32;;;;;;;9.38;3.40;;;;;;;;;;8325723;28;20548;-88
2023/04/22 17:04:37;;;;;;;6.60;4.65;;;;;;;;;;8325661;28;20161;-89
2023/04/22 17:13:00;;;;;;;7.47;3.10;;;;;;;;;;8335549;28;20507;-90
2023/04/22 17:17:06;;;;;;;9.25;3.08;;;;;;;;;;8335485;28;20057;-88
2023/04/22 17:21:09;;;;;;;5.47;3.05;;;;;;;;;;8314220;28;20120;-88
2023/04/22 17:25:15;;;;;;;10.20;5.20;;;;;;;;;;8343878;28;20535;-89
2023/04/22 17:29:20;;;;;;;14.80;8.00;;;;;;;;;;8321162;28;20061;-88
2023/04/22 17:33:30;;;;;;;11.43;6.40;;;;;;;;;;8314447;28;20144;-87
2023/04/22 17:37:33;;;;;;;11.90;6.03;;;;;;;;;;8313691;28;20061;-88
2023/04/22 17:41:40;;;;;;;11.57;5.60;;;;;;;;;;8322275;28;20477;-88
2023/04/22 17:45:43;;;;;;;11.80;6.43;;;;;;;;;;8321390;28;20065;-88
2023/04/22 17:49:50;;;;;;;13.57;7.63;;;;;;;;;;8336380;28;20057;-88
2023/04/22 17:53:55;;;;;;;13.75;6.38;;;;;;;;;;8322022;28;20465;-88
2023/04/22 17:58:02;;;;;;;11.60;5.57;;;;;;;;;;8326357;28;20062;-88
2023/04/22 18:02:07;;;;;;;8.45;4.07;;;;;;;;;;8316913;28;20146;-87
2023/04/22 18:06:12;;;;;;;6.22;3.45;;;;;;;;;;8453301;22;20143;-88
2023/04/22 18:10:18;;;;;;;6.65;3.28;;;;;;;;;;8353119;28;20060;-87
2023/04/22 18:14:24;;;;;;;6.80;4.47;;;;;;;;;;8351016;28;20057;-88
2023/04/22 18:18:28;;;;;;;11.13;6.07;;;;;;;;;;8353639;28;20144;-87
2023/04/22 18:22:35;;;;;;;12.25;4.63;;;;;;;;;;8365439;28;20060;-88
2023/04/22 18:26:43;;;;;;;12.40;5.30;;;;;;;;;;8348640;28;20140;-88
2023/04/22 18:30:49;;;;;;;9.70;5.20;;;;;;;;;;8364857;28;21370;-88
2023/04/22 18:34:58;;;;;;;11.45;5.93;;;;;;;;;;8345108;28;20061;-87
2023/04/22 18:39:05;;;;;;;8.77;5.15;;;;;;;;;;8344795;28;20057;-88
2023/04/22 18:43:11;;;;;;;9.27;5.15;;;;;;;;;;8355570;28;20492;-87
2023/04/22 18:47:18;;;;;;;9.70;4.30;;;;;;;;;;8361598;28;20102;-87
2023/04/22 18:51:26;;;;;;;8.85;4.93;;;;;;;;;;8359890;28;20109;-89
2023/04/22 18:55:32;;;;;;;7.85;4.65;;;;;;;;;;8350726;28;20558;-87
2023/04/22 19:05:17;;;;;;;9.18;5.22;;;;;;;;;;8231866;28;20066;-87
2023/04/22 19:27:26;;;;;;;19.63;9.75;;;;;;;;;;8420640;23;20132;-88
2023/04/22 19:31:29;;;;;;;15.65;6.47;;;;;;;;;;8349276;28;20053;-88
2023/04/22 19:35:35;;;;;;;7.35;4.35;;;;;;;;;;8339485;28;20153;-87
2023/04/22 19:39:40;;;;;;;14.00;7.45;;;;;;;;;;8342237;28;20106;-86
2023/04/22 19:43:50;;;;;;;8.10;4.60;;;;;;;;;;8339839;28;20088;-86
2023/04/22 19:47:56;;;;;;;9.52;6.22;;;;;;;;;;8345829;28;20045;-88
2023/04/22 19:52:07;;;;;;;95.55;28.17;;;;;;;;;;8352582;28;20053;-86
2023/04/22 19:56:19;;;;;;;39.30;17.52;;;;;;;;;;8352376;28;20099;-86
2023/04/22 20:00:27;;;;;;;19.92;11.88;;;;;;;;;;8349718;28;20088;-87
2023/04/22 20:04:31;;;;;;;17.00;9.68;;;;;;;;;;8375206;28;20044;-88
2023/04/22 20:08:35;;;;;;;21.10;9.60;;;;;;;;;;8379594;28;20048;-88
2023/04/22 20:12:38;;;;;;;18.08;7.20;;;;;;;;;;8378575;28;20084;-87
2023/04/22 20:16:43;;;;;;;11.82;5.22;;;;;;;;;;8393097;28;20045;-87
2023/04/22 20:20:51;;;;;;;16.13;6.88;;;;;;;;;;8387056;28;20052;-86
2023/04/22 20:25:06;;;;;;;11.57;6.78;;;;;;;;;;8397565;28;20116;-86
2023/04/22 20:29:13;;;;;;;10.73;5.45;;;;;;;;;;8355880;28;20053;-86
2023/04/22 20:33:20;;;;;;;10.45;4.95;;;;;;;;;;8341194;28;20105;-86
2023/04/22 20:37:30;;;;;;;10.88;5.50;;;;;;;;;;8338478;28;20065;-85
2023/04/22 20:41:40;;;;;;;12.40;5.78;;;;;;;;;;8325763;28;20140;-87
2023/04/22 20:45:46;;;;;;;13.43;7.00;;;;;;;;;;8350895;28;20131;-87
2023/04/22 20:49:54;;;;;;;11.20;5.88;;;;;;;;;;8333461;28;20400;-86
2023/04/22 20:53:59;;;;;;;11.02;5.55;;;;;;;;;;8347214;28;20501;-87
2023/04/22 20:58:03;;;;;;;9.45;5.15;;;;;;;;;;8350024;28;20068;-85
2023/04/22 21:02:10;;;;;;;10.07;4.85;;;;;;;;;;8348645;28;20093;-86
2023/04/22 21:06:23;;;;;;;13.10;5.55;;;;;;;;;;8345796;28;20420;-86
2023/04/22 21:10:29;;;;;;;13.82;4.95;;;;;;;;;;8348983;28;20049;-86
2023/04/22 21:14:35;;;;;;;11.80;5.75;;;;;;;;;;8349335;28;20057;-85
2023/04/22 21:18:43;;;;;;;10.00;5.53;;;;;;;;;;8349181;28;20057;-87
2023/04/22 21:22:53;;;;;;;10.30;5.72;;;;;;;;;;8349049;28;20179;-87
2023/04/22 21:27:00;;;;;;;10.25;5.68;;;;;;;;;;8310856;28;20053;-85
2023/04/22 21:31:04;;;;;;;11.85;6.00;;;;;;;;;;8331968;28;20054;-86
2023/04/22 21:35:09;;;;;;;17.05;6.22;;;;;;;;;;8437204;22;20072;-85
2023/04/22 21:39:14;;;;;;;12.82;5.70;;;;;;;;;;8453221;22;20228;-87
2023/04/22 23:50:09;;;;;;;17.95;7.68;;;;;;;;;;8323174;28;20060;-87
2023/04/22 23:54:14;;;;;;;11.80;6.65;;;;;;;;;;8313151;28;20520;-86
2023/04/22 23:58:17;;;;;;;14.35;8.55;;;;;;;;;;8310314;28;20053;-86
